Time;durP1;ratioP1;P1;durP2;ratioP2;P2;SDS_P1;SDS_P2;PMS_P1;PMS_P2;Temp;Humidity;BMP_temperature;BMP_pressure;BME280_temperature;BME280_humidity;BME280_pressure;Samples;Min_cycle;Max_cycle;Signal;HPM_P1;HPM_P2
2022/09/04 00:01:45;;;;;;;1.50;1.50;;;;;;;;;;4988259;28;20259;-60
2022/09/04 00:04:15;;;;;;;1.60;1.60;;;;;;;;;;5009957;28;20266;-60
2022/09/04 00:07:08;;;;;;;1.80;1.70;;;;;;;;;;5014320;28;20223;-60
2022/09/04 00:09:49;;;;;;;1.60;1.60;;;;;;;;;;5002233;28;20274;-60
2022/09/04 00:12:15;;;;;;;1.50;1.50;;;;;;;;;;5010551;28;20231;-59
2022/09/04 00:14:47;;;;;;;1.50;1.50;;;;;;;;;;4997825;28;20275;-60
2022/09/04 00:17:21;;;;;;;1.83;1.73;;;;;;;;;;5010339;28;20226;-60
2022/09/04 00:19:55;;;;;;;1.90;1.80;;;;;;;;;;5014095;28;22039;-60
2022/09/04 00:22:33;;;;;;;1.67;1.67;;;;;;;;;;4992904;28;20224;-61
2022/09/04 00:24:59;;;;;;;1.90;1.80;;;;;;;;;;5008608;28;20247;-60
2022/09/04 00:27:29;;;;;;;1.60;1.60;;;;;;;;;;5021201;28;20216;-60
2022/09/04 00:30:01;;;;;;;1.50;1.50;;;;;;;;;;5030469;28;20340;-60
2022/09/04 00:32:37;;;;;;;1.90;1.80;;;;;;;;;;5023844;28;20246;-60
2022/09/04 00:35:12;;;;;;;1.60;1.60;;;;;;;;;;4997720;28;20216;-61
2022/09/04 00:37:39;;;;;;;1.93;1.83;;;;;;;;;;5020468;28;20691;-60
2022/09/04 00:40:08;;;;;;;1.50;1.50;;;;;;;;;;5008536;28;20829;-60
2022/09/04 00:42:37;;;;;;;1.40;1.40;;;;;;;;;;5016524;28;20263;-60
2022/09/04 00:45:06;;;;;;;1.50;1.50;;;;;;;;;;5002220;28;20319;-60
2022/09/04 00:47:32;;;;;;;1.63;1.63;;;;;;;;;;5023850;28;20224;-60
2022/09/04 00:50:18;;;;;;;1.40;1.40;;;;;;;;;;5013402;28;20638;-60
2022/09/04 00:53:02;;;;;;;1.53;1.53;;;;;;;;;;5013713;28;20231;-60
2022/09/04 00:55:41;;;;;;;1.40;1.40;;;;;;;;;;5015374;28;20217;-60
2022/09/04 00:58:10;;;;;;;1.80;1.70;;;;;;;;;;5003784;28;20227;-60
2022/09/04 01:00:36;;;;;;;1.60;1.60;;;;;;;;;;4999402;28;20634;-60
2022/09/04 01:03:18;;;;;;;1.70;1.70;;;;;;;;;;5008769;28;20642;-60
2022/09/04 01:06:02;;;;;;;1.50;1.50;;;;;;;;;;5009006;28;20884;-60
2022/09/04 01:08:47;;;;;;;1.40;1.40;;;;;;;;;;5006456;28;20225;-60
2022/09/04 01:11:13;;;;;;;1.60;1.60;;;;;;;;;;4994001;28;20225;-60
2022/09/04 01:13:41;;;;;;;1.60;1.60;;;;;;;;;;5012076;28;20243;-60
2022/09/04 01:16:12;;;;;;;1.50;1.50;;;;;;;;;;5008578;28;20308;-60
2022/09/04 01:18:51;;;;;;;1.57;1.57;;;;;;;;;;4982135;28;20265;-60
2022/09/04 01:21:37;;;;;;;1.67;1.67;;;;;;;;;;5013421;28;20229;-61
2022/09/04 01:24:09;;;;;;;1.50;1.50;;;;;;;;;;5009170;28;20225;-60
2022/09/04 01:27:08;;;;;;;1.40;1.40;;;;;;;;;;4994637;28;20244;-60
2022/09/04 01:29:48;;;;;;;1.50;1.50;;;;;;;;;;4979208;28;20245;-60
2022/09/04 01:32:36;;;;;;;1.60;1.60;;;;;;;;;;4991886;28;20222;-60
2022/09/04 01:35:02;;;;;;;1.60;1.60;;;;;;;;;;5009435;28;20323;-60
2022/09/04 01:37:41;;;;;;;1.80;1.70;;;;;;;;;;4982981;28;20300;-60
2022/09/04 01:40:16;;;;;;;1.80;1.70;;;;;;;;;;5008986;28;20271;-60
2022/09/04 01:42:47;;;;;;;1.60;1.60;;;;;;;;;;4975916;28;20778;-60
2022/09/04 01:45:14;;;;;;;1.50;1.50;;;;;;;;;;4994649;28;20228;-61
2022/09/04 01:47:42;;;;;;;1.90;1.80;;;;;;;;;;4995049;28;20299;-60
2022/09/04 01:50:13;;;;;;;1.60;1.60;;;;;;;;;;5009829;28;20261;-60
2022/09/04 01:52:39;;;;;;;1.77;1.70;;;;;;;;;;4997533;28;20220;-60
2022/09/04 01:55:11;;;;;;;1.60;1.60;;;;;;;;;;5007889;28;20283;-60
2022/09/04 01:57:45;;;;;;;1.70;1.70;;;;;;;;;;5004203;28;20216;-61
2022/09/04 02:00:12;;;;;;;2.00;1.90;;;;;;;;;;5002432;28;20228;-61
2022/09/04 02:02:41;;;;;;;1.50;1.50;;;;;;;;;;5024002;28;20255;-60
2022/09/04 02:05:16;;;;;;;1.77;1.70;;;;;;;;;;5019213;28;20237;-60
2022/09/04 02:07:55;;;;;;;1.90;1.80;;;;;;;;;;5013756;28;20596;-60
2022/09/04 02:10:36;;;;;;;1.60;1.60;;;;;;;;;;5026719;28;20228;-60
2022/09/04 02:13:28;;;;;;;1.73;1.70;;;;;;;;;;5018279;28;20279;-60
2022/09/04 02:16:09;;;;;;;1.87;1.77;;;;;;;;;;4981728;28;21005;-59
2022/09/04 02:18:44;;;;;;;1.50;1.50;;;;;;;;;;5017564;28;20216;-60
2022/09/04 02:21:13;;;;;;;1.00;1.00;;;;;;;;;;5010056;28;20698;-60
2022/09/04 02:23:52;;;;;;;1.13;1.13;;;;;;;;;;5003529;28;20312;-60
2022/09/04 02:26:33;;;;;;;1.00;1.00;;;;;;;;;;4970554;28;20285;-61
2022/09/04 02:29:14;;;;;;;1.10;1.10;;;;;;;;;;4995966;28;20224;-60
2022/09/04 02:31:44;;;;;;;0.90;0.90;;;;;;;;;;5005133;28;20237;-60
2022/09/04 02:34:24;;;;;;;1.00;1.00;;;;;;;;;;5002789;28;20240;-60
2022/09/04 02:36:53;;;;;;;0.90;0.90;;;;;;;;;;5010535;28;20259;-60
2022/09/04 02:39:38;;;;;;;1.00;1.00;;;;;;;;;;5013821;28;20225;-60
2022/09/04 02:42:10;;;;;;;1.10;1.10;;;;;;;;;;5003361;28;20300;-61
2022/09/04 02:44:43;;;;;;;1.10;1.10;;;;;;;;;;5005522;28;20286;-61
2022/09/04 02:47:16;;;;;;;1.10;1.10;;;;;;;;;;4979583;28;20260;-60
2022/09/04 02:49:59;;;;;;;1.00;1.00;;;;;;;;;;5003441;28;20731;-60
2022/09/04 02:52:44;;;;;;;1.20;1.20;;;;;;;;;;4973074;28;20227;-60
2022/09/04 02:55:29;;;;;;;1.07;1.07;;;;;;;;;;4993733;28;20304;-60
2022/09/04 02:57:58;;;;;;;1.27;1.27;;;;;;;;;;5006281;28;20231;-60
2022/09/04 03:00:38;;;;;;;1.20;1.20;;;;;;;;;;5000887;28;20697;-60
2022/09/04 03:03:27;;;;;;;1.00;1.00;;;;;;;;;;4966844;28;21563;-61
2022/09/04 03:06:10;;;;;;;1.30;1.30;;;;;;;;;;4993775;28;20240;-60
2022/09/04 03:08:37;;;;;;;1.20;1.20;;;;;;;;;;4987321;28;20233;-60
2022/09/04 03:11:17;;;;;;;1.00;1.00;;;;;;;;;;4979202;28;20217;-60
2022/09/04 03:14:01;;;;;;;1.30;1.30;;;;;;;;;;4988647;28;20230;-61
2022/09/04 03:16:33;;;;;;;1.10;1.10;;;;;;;;;;4992558;28;20745;-60
2022/09/04 03:19:02;;;;;;;1.10;1.10;;;;;;;;;;5007642;28;20229;-60
2022/09/04 03:21:34;;;;;;;1.40;1.40;;;;;;;;;;5001825;28;20332;-60
2022/09/04 03:24:03;;;;;;;1.20;1.20;;;;;;;;;;5001458;28;20348;-60
2022/09/04 03:26:29;;;;;;;1.00;1.00;;;;;;;;;;5001759;28;20768;-59
2022/09/04 03:29:14;;;;;;;1.00;1.00;;;;;;;;;;4990325;28;20759;-60
2022/09/04 03:31:50;;;;;;;1.30;1.30;;;;;;;;;;4993258;28;20639;-59
2022/09/04 03:34:24;;;;;;;1.10;1.10;;;;;;;;;;4977139;28;20907;-59
2022/09/04 03:37:09;;;;;;;1.00;1.00;;;;;;;;;;4969130;28;20773;-59
2022/09/04 03:39:40;;;;;;;1.20;1.20;;;;;;;;;;5015031;28;20237;-60
2022/09/04 03:42:19;;;;;;;1.00;1.00;;;;;;;;;;4990290;28;20221;-60
2022/09/04 03:44:57;;;;;;;1.03;1.03;;;;;;;;;;4992343;28;20232;-60
2022/09/04 03:47:32;;;;;;;1.10;1.10;;;;;;;;;;5003129;28;20604;-60
2022/09/04 03:50:10;;;;;;;0.90;0.90;;;;;;;;;;5005106;28;20235;-60
2022/09/04 03:52:39;;;;;;;1.10;1.10;;;;;;;;;;4977750;28;20755;-60
2022/09/04 03:55:05;;;;;;;1.30;1.30;;;;;;;;;;4975350;28;20325;-60
2022/09/04 03:57:37;;;;;;;1.17;1.17;;;;;;;;;;5000539;28;20222;-60
2022/09/04 04:00:07;;;;;;;1.10;1.10;;;;;;;;;;5000124;28;20255;-59
2022/09/04 04:02:46;;;;;;;1.00;1.00;;;;;;;;;;4987179;28;20256;-60
2022/09/04 04:05:35;;;;;;;1.00;1.00;;;;;;;;;;4978382;28;20224;-60
2022/09/04 04:08:01;;;;;;;1.20;1.20;;;;;;;;;;5001667;28;20568;-59
2022/09/04 04:10:46;;;;;;;1.20;1.20;;;;;;;;;;4985999;28;20786;-60
2022/09/04 04:13:20;;;;;;;1.30;1.30;;;;;;;;;;5005252;28;20308;-59
2022/09/04 04:15:52;;;;;;;1.13;1.13;;;;;;;;;;4980456;28;20294;-60
2022/09/04 04:18:18;;;;;;;1.03;1.03;;;;;;;;;;4990471;28;20222;-60
2022/09/04 04:20:49;;;;;;;1.30;1.30;;;;;;;;;;4987840;28;20221;-59
2022/09/04 04:23:35;;;;;;;1.40;1.40;;;;;;;;;;4999270;28;21146;-60
2022/09/04 04:26:06;;;;;;;1.40;1.40;;;;;;;;;;4990686;28;20220;-60
2022/09/04 04:28:32;;;;;;;1.50;1.50;;;;;;;;;;4983937;28;20226;-60
2022/09/04 04:31:18;;;;;;;1.23;1.23;;;;;;;;;;4994614;28;20225;-60
2022/09/04 04:33:47;;;;;;;1.50;1.50;;;;;;;;;;4993569;28;20272;-60
2022/09/04 04:36:32;;;;;;;1.40;1.40;;;;;;;;;;5003832;28;20233;-59
2022/09/04 04:39:13;;;;;;;1.30;1.30;;;;;;;;;;5005314;28;20229;-60
2022/09/04 04:42:03;;;;;;;1.40;1.40;;;;;;;;;;4986001;28;21023;-60
2022/09/04 04:45:48;;;;;;;1.33;1.33;;;;;;;;;;5011876;28;20228;-60
2022/09/04 04:47:15;;;;;;;1.30;1.30;;;;;;;;;;4977564;28;20232;-60
2022/09/04 04:49:49;;;;;;;1.73;1.70;;;;;;;;;;4998447;28;20712;-60
2022/09/04 04:52:18;;;;;;;1.50;1.50;;;;;;;;;;4998623;28;20267;-60
2022/09/04 04:55:05;;;;;;;1.40;1.40;;;;;;;;;;5025466;28;20229;-60
2022/09/04 04:57:52;;;;;;;1.30;1.30;;;;;;;;;;5001496;28;20220;-60
2022/09/04 05:00:20;;;;;;;1.40;1.40;;;;;;;;;;5011594;28;20236;-60
2022/09/04 05:02:49;;;;;;;1.40;1.40;;;;;;;;;;4986841;28;20248;-59
2022/09/04 05:05:22;;;;;;;1.30;1.30;;;;;;;;;;5010382;28;20235;-60
2022/09/04 05:07:51;;;;;;;1.40;1.40;;;;;;;;;;5020006;28;20222;-59
2022/09/04 05:10:21;;;;;;;1.30;1.30;;;;;;;;;;5018575;28;20307;-59
2022/09/04 05:13:19;;;;;;;1.30;1.30;;;;;;;;;;5009874;28;20221;-60
2022/09/04 05:15:48;;;;;;;1.33;1.33;;;;;;;;;;4956548;28;21458;-60
2022/09/04 05:18:33;;;;;;;1.30;1.30;;;;;;;;;;4997962;28;20709;-60
2022/09/04 05:20:59;;;;;;;1.60;1.60;;;;;;;;;;5006355;28;20295;-60
2022/09/04 05:23:32;;;;;;;1.30;1.30;;;;;;;;;;5030815;28;20262;-59
2022/09/04 05:26:11;;;;;;;1.30;1.30;;;;;;;;;;5001648;28;20240;-60
2022/09/04 05:28:49;;;;;;;1.50;1.50;;;;;;;;;;4990347;28;20260;-59
2022/09/04 05:31:18;;;;;;;1.50;1.50;;;;;;;;;;5002556;28;21198;-60
2022/09/04 05:33:49;;;;;;;1.30;1.30;;;;;;;;;;5032366;28;20615;-60
2022/09/04 05:36:15;;;;;;;1.20;1.20;;;;;;;;;;5013683;28;20230;-60
2022/09/04 05:38:56;;;;;;;1.40;1.40;;;;;;;;;;5009665;28;20233;-60
2022/09/04 05:41:34;;;;;;;1.40;1.40;;;;;;;;;;5007694;28;20228;-59
2022/09/04 05:44:00;;;;;;;1.20;1.20;;;;;;;;;;5002038;28;20292;-59
2022/09/04 05:46:31;;;;;;;1.20;1.20;;;;;;;;;;5022439;28;20225;-59
2022/09/04 05:49:02;;;;;;;1.40;1.40;;;;;;;;;;5020331;28;20224;-60
2022/09/04 05:51:46;;;;;;;1.40;1.40;;;;;;;;;;5013171;28;20244;-59
2022/09/04 05:54:20;;;;;;;1.30;1.30;;;;;;;;;;5002860;28;21476;-59
2022/09/04 05:56:46;;;;;;;1.33;1.33;;;;;;;;;;5003868;28;20332;-60
2022/09/04 05:59:12;;;;;;;1.50;1.50;;;;;;;;;;5008159;28;20221;-60
2022/09/04 06:01:49;;;;;;;1.30;1.30;;;;;;;;;;5014874;28;20298;-60
2022/09/04 06:04:31;;;;;;;1.30;1.30;;;;;;;;;;5014992;28;20228;-60
2022/09/04 06:07:06;;;;;;;1.43;1.43;;;;;;;;;;5003491;28;20310;-60
2022/09/04 06:09:51;;;;;;;1.20;1.20;;;;;;;;;;4998137;28;20310;-59
2022/09/04 06:12:35;;;;;;;1.40;1.40;;;;;;;;;;5006419;28;20236;-60
2022/09/04 06:15:01;;;;;;;1.53;1.53;;;;;;;;;;5011138;28;20252;-60
2022/09/04 06:17:42;;;;;;;1.43;1.43;;;;;;;;;;4993185;28;20328;-60
2022/09/04 06:20:18;;;;;;;1.30;1.30;;;;;;;;;;4978819;28;20232;-61
2022/09/04 06:23:02;;;;;;;1.30;1.30;;;;;;;;;;5013640;28;20229;-59
2022/09/04 06:25:34;;;;;;;1.40;1.40;;;;;;;;;;5010272;28;20224;-59
2022/09/04 06:28:06;;;;;;;1.40;1.40;;;;;;;;;;4998717;28;20245;-61
2022/09/04 06:30:48;;;;;;;1.30;1.30;;;;;;;;;;5008303;28;20316;-60
2022/09/04 06:33:25;;;;;;;1.30;1.30;;;;;;;;;;5005504;28;20235;-60
2022/09/04 06:36:11;;;;;;;1.10;1.10;;;;;;;;;;4979972;28;20255;-59
2022/09/04 06:38:56;;;;;;;1.50;1.50;;;;;;;;;;5008867;28;20227;-60
2022/09/04 06:41:32;;;;;;;1.20;1.20;;;;;;;;;;5009275;28;20229;-61
2022/09/04 06:44:17;;;;;;;1.20;1.20;;;;;;;;;;4993509;28;20217;-61
2022/09/04 06:47:12;;;;;;;1.20;1.20;;;;;;;;;;5010890;28;20267;-61
2022/09/04 06:49:44;;;;;;;1.33;1.33;;;;;;;;;;4929179;28;20240;-61
2022/09/04 06:52:29;;;;;;;1.50;1.50;;;;;;;;;;5006285;28;20225;-61
2022/09/04 06:54:55;;;;;;;1.50;1.50;;;;;;;;;;5009417;28;20237;-58
2022/09/04 06:57:24;;;;;;;1.50;1.50;;;;;;;;;;5018035;28;20236;-65
2022/09/04 06:59:53;;;;;;;1.40;1.40;;;;;;;;;;4999010;28;20818;-65
2022/09/04 07:02:35;;;;;;;1.30;1.30;;;;;;;;;;5000441;28;20217;-67
2022/09/04 07:05:20;;;;;;;1.40;1.40;;;;;;;;;;5000591;28;20220;-64
2022/09/04 07:07:56;;;;;;;1.27;1.27;;;;;;;;;;5007096;28;20282;-65
2022/09/04 07:10:24;;;;;;;1.23;1.23;;;;;;;;;;5006242;28;20231;-62
2022/09/04 07:13:11;;;;;;;1.70;1.60;;;;;;;;;;5015404;28;20226;-60
2022/09/04 07:15:43;;;;;;;1.07;1.07;;;;;;;;;;4997119;28;20814;-53
2022/09/04 07:18:12;;;;;;;1.00;1.00;;;;;;;;;;5001946;28;20297;-54
2022/09/04 07:20:57;;;;;;;1.20;1.20;;;;;;;;;;4996766;28;20237;-52
2022/09/04 07:23:26;;;;;;;1.00;1.00;;;;;;;;;;5002588;28;20220;-54
2022/09/04 07:25:59;;;;;;;1.00;1.00;;;;;;;;;;5009644;28;20434;-57
2022/09/04 07:28:46;;;;;;;1.30;1.30;;;;;;;;;;4956748;28;20593;-55
2022/09/04 07:31:19;;;;;;;1.30;1.30;;;;;;;;;;4982898;28;20956;-56
2022/09/04 07:33:48;;;;;;;1.30;1.30;;;;;;;;;;4996475;28;20641;-53
2022/09/04 07:36:15;;;;;;;0.90;0.90;;;;;;;;;;4996848;28;20428;-63
2022/09/04 07:38:57;;;;;;;0.90;0.90;;;;;;;;;;4974618;28;20436;-57
2022/09/04 07:41:44;;;;;;;0.90;0.90;;;;;;;;;;5005460;28;20413;-57
2022/09/04 07:44:29;;;;;;;0.90;0.90;;;;;;;;;;5012860;28;20439;-56
2022/09/04 07:46:56;;;;;;;0.80;0.80;;;;;;;;;;5000790;28;20783;-56
2022/09/04 07:49:28;;;;;;;0.90;0.90;;;;;;;;;;4995665;28;20407;-56
2022/09/04 07:52:06;;;;;;;0.95;0.95;;;;;;;;;;4980820;28;20430;-57
2022/09/04 07:54:38;;;;;;;0.90;0.90;;;;;;;;;;4982790;28;21372;-56
2022/09/04 07:57:40;;;;;;;1.23;1.23;;;;;;;;;;4978084;28;20500;-56
2022/09/04 08:00:08;;;;;;;1.10;1.10;;;;;;;;;;4946740;28;20522;-56
2022/09/04 08:02:36;;;;;;;1.40;1.40;;;;;;;;;;4974440;28;20498;-56
2022/09/04 08:05:22;;;;;;;0.98;0.98;;;;;;;;;;4954624;28;20418;-55
2022/09/04 08:07:47;;;;;;;1.00;1.00;;;;;;;;;;5004911;28;20433;-56
2022/09/04 08:10:13;;;;;;;1.20;1.20;;;;;;;;;;4998548;28;20456;-56
2022/09/04 08:12:57;;;;;;;1.30;1.30;;;;;;;;;;4978139;28;20430;-57
2022/09/04 08:15:29;;;;;;;1.30;1.30;;;;;;;;;;4990402;28;20598;-56
2022/09/04 08:18:11;;;;;;;1.40;1.40;;;;;;;;;;4983381;28;20443;-56
2022/09/04 08:20:43;;;;;;;1.40;1.40;;;;;;;;;;5000946;28;20403;-56
2022/09/04 08:23:28;;;;;;;1.20;1.20;;;;;;;;;;4996563;28;20429;-56
2022/09/04 08:25:57;;;;;;;0.90;0.90;;;;;;;;;;4998973;28;20426;-56
2022/09/04 08:28:43;;;;;;;0.95;0.95;;;;;;;;;;5002054;28;20837;-57
2022/09/04 08:31:17;;;;;;;1.00;1.00;;;;;;;;;;4983983;28;20508;-57
2022/09/04 08:34:02;;;;;;;1.00;1.00;;;;;;;;;;4990104;28;20438;-57
2022/09/04 08:36:46;;;;;;;1.30;1.30;;;;;;;;;;5001984;28;20528;-57
2022/09/04 08:39:19;;;;;;;1.20;1.20;;;;;;;;;;4996796;28;20465;-57
2022/09/04 08:42:04;;;;;;;1.20;1.20;;;;;;;;;;5006668;28;20508;-57
2022/09/04 08:44:39;;;;;;;1.40;1.40;;;;;;;;;;4995194;28;20422;-57
2022/09/04 08:47:16;;;;;;;1.10;1.10;;;;;;;;;;5001048;28;20782;-58
2022/09/04 08:50:01;;;;;;;0.93;0.93;;;;;;;;;;5004207;28;20424;-57
2022/09/04 08:52:46;;;;;;;0.70;0.70;;;;;;;;;;5010755;28;20444;-58
2022/09/04 08:55:16;;;;;;;0.70;0.70;;;;;;;;;;5001306;28;20440;-57
2022/09/04 08:58:09;;;;;;;0.70;0.70;;;;;;;;;;4990449;28;20890;-57
2022/09/04 09:00:58;;;;;;;0.70;0.70;;;;;;;;;;4983977;28;20887;-56
2022/09/04 09:03:28;;;;;;;0.60;0.60;;;;;;;;;;4962080;28;21002;-57
2022/09/04 09:06:05;;;;;;;0.70;0.70;;;;;;;;;;5010951;28;20917;-57
2022/09/04 09:08:32;;;;;;;0.70;0.70;;;;;;;;;;5032522;28;20884;-58
2022/09/04 09:11:05;;;;;;;0.88;0.88;;;;;;;;;;5010676;28;20459;-57
2022/09/04 09:13:30;;;;;;;;;;;;;;;;;;5011629;28;20046;-57
2022/09/04 09:15:56;;;;;;;0.90;0.90;;;;;;;;;;4997237;28;20811;-58
2022/09/04 09:18:22;;;;;;;1.00;1.00;;;;;;;;;;5018818;28;20410;-58
2022/09/04 09:21:01;;;;;;;1.00;1.00;;;;;;;;;;5028232;28;20442;-58
2022/09/04 09:23:37;;;;;;;0.70;0.70;;;;;;;;;;5012575;28;20434;-58
2022/09/04 09:26:22;;;;;;;1.00;1.00;;;;;;;;;;5021876;28;20428;-58
2022/09/04 09:28:54;;;;;;;1.00;1.00;;;;;;;;;;5016929;28;20414;-58
2022/09/04 09:31:29;;;;;;;0.90;0.90;;;;;;;;;;5005014;28;20462;-57
2022/09/04 09:34:13;;;;;;;1.05;1.05;;;;;;;;;;4981805;28;20441;-57
2022/09/04 09:36:58;;;;;;;0.90;0.90;;;;;;;;;;4980852;28;20435;-56
2022/09/04 09:39:37;;;;;;;1.00;1.00;;;;;;;;;;5012537;28;20425;-57
2022/09/04 09:42:15;;;;;;;0.93;0.93;;;;;;;;;;5011470;28;20431;-57
2022/09/04 09:45:00;;;;;;;0.90;0.90;;;;;;;;;;5026748;28;20417;-58
2022/09/04 09:47:32;;;;;;;1.10;1.10;;;;;;;;;;5015266;28;20426;-57
2022/09/04 09:50:08;;;;;;;1.00;1.00;;;;;;;;;;5014496;28;20475;-57
2022/09/04 09:52:49;;;;;;;0.90;0.90;;;;;;;;;;4962572;28;20493;-57
2022/09/04 09:55:20;;;;;;;1.00;1.00;;;;;;;;;;5000673;28;20435;-57
2022/09/04 09:57:46;;;;;;;1.00;1.00;;;;;;;;;;4976359;28;20422;-56
2022/09/04 10:00:14;;;;;;;1.00;1.00;;;;;;;;;;4998677;28;20426;-57
2022/09/04 10:02:43;;;;;;;1.00;1.00;;;;;;;;;;4977972;28;20750;-57
2022/09/04 10:05:26;;;;;;;0.80;0.80;;;;;;;;;;4994915;28;21122;-56
2022/09/04 10:07:52;;;;;;;0.80;0.80;;;;;;;;;;4984490;28;20941;-56
2022/09/04 10:10:37;;;;;;;0.80;0.80;;;;;;;;;;4986363;28;20476;-56
2022/09/04 10:13:14;;;;;;;0.80;0.80;;;;;;;;;;4989000;28;20421;-56
2022/09/04 10:16:00;;;;;;;1.00;1.00;;;;;;;;;;4977756;28;20436;-57
2022/09/04 10:18:35;;;;;;;3.00;2.90;;;;;;;;;;4993432;28;20500;-57
2022/09/04 10:21:11;;;;;;;2.50;2.40;;;;;;;;;;4985780;28;20462;-57
2022/09/04 10:23:40;;;;;;;1.00;1.00;;;;;;;;;;5011065;28;20984;-57
2022/09/04 10:26:09;;;;;;;0.80;0.80;;;;;;;;;;4995821;28;20498;-58
2022/09/04 10:28:41;;;;;;;0.80;0.80;;;;;;;;;;4991059;28;20448;-54
2022/09/04 10:31:26;;;;;;;0.90;0.90;;;;;;;;;;4976658;28;20522;-57
2022/09/04 10:34:07;;;;;;;0.90;0.90;;;;;;;;;;4996695;28;20916;-57
2022/09/04 10:36:33;;;;;;;0.90;0.90;;;;;;;;;;4991607;28;20645;-57
2022/09/04 10:42:02;;;;;;;0.88;0.88;;;;;;;;;;4980809;28;20430;-57
2022/09/04 10:44:49;;;;;;;0.90;0.90;;;;;;;;;;4995331;28;20488;-57
2022/09/04 10:47:30;;;;;;;0.80;0.80;;;;;;;;;;4990227;28;20421;-57
2022/09/04 10:50:16;;;;;;;1.10;1.10;;;;;;;;;;5003177;28;20853;-57
2022/09/04 10:52:47;;;;;;;0.90;0.90;;;;;;;;;;4991575;28;20435;-58
2022/09/04 10:55:16;;;;;;;0.90;0.90;;;;;;;;;;5009375;28;20424;-58
2022/09/04 10:58:01;;;;;;;1.10;1.10;;;;;;;;;;5004612;28;20459;-57
2022/09/04 11:00:31;;;;;;;1.00;1.00;;;;;;;;;;4978709;28;20485;-55
2022/09/04 11:03:16;;;;;;;1.10;1.10;;;;;;;;;;4986195;28;20802;-58
2022/09/04 11:06:01;;;;;;;0.98;0.98;;;;;;;;;;4987362;28;20428;-58
2022/09/04 11:08:37;;;;;;;0.90;0.90;;;;;;;;;;4992665;28;20420;-57
2022/09/04 11:11:10;;;;;;;0.90;0.90;;;;;;;;;;4982403;28;20437;-58
2022/09/04 11:13:37;;;;;;;0.80;0.80;;;;;;;;;;5002392;28;20236;-57
2022/09/04 11:16:03;;;;;;;0.77;0.77;;;;;;;;;;4991197;28;20698;-57
2022/09/04 11:18:28;;;;;;;0.80;0.80;;;;;;;;;;4992625;28;20260;-57
2022/09/04 11:20:57;;;;;;;0.80;0.80;;;;;;;;;;4996800;28;20329;-58
2022/09/04 11:23:42;;;;;;;0.80;0.80;;;;;;;;;;4993837;28;20669;-57
2022/09/04 11:26:19;;;;;;;0.70;0.70;;;;;;;;;;5000428;28;20233;-58
2022/09/04 11:28:45;;;;;;;0.70;0.70;;;;;;;;;;4984423;28;21426;-58
2022/09/04 11:31:19;;;;;;;0.70;0.70;;;;;;;;;;4982034;28;20221;-57
2022/09/04 11:33:57;;;;;;;0.70;0.70;;;;;;;;;;4982501;28;20319;-58
2022/09/04 11:36:40;;;;;;;0.70;0.70;;;;;;;;;;4974363;28;20232;-58
2022/09/04 11:39:09;;;;;;;0.70;0.70;;;;;;;;;;4988425;28;20793;-57
2022/09/04 11:41:42;;;;;;;0.70;0.70;;;;;;;;;;4987277;28;20225;-56
2022/09/04 11:44:24;;;;;;;0.70;0.70;;;;;;;;;;4990750;28;20676;-66
2022/09/04 11:46:59;;;;;;;0.70;0.70;;;;;;;;;;4990486;28;20669;-62
2022/09/04 11:49:43;;;;;;;0.70;0.70;;;;;;;;;;5001519;28;20243;-60
2022/09/04 11:52:15;;;;;;;0.70;0.70;;;;;;;;;;5008004;28;20236;-62
2022/09/04 11:55:04;;;;;;;0.60;0.60;;;;;;;;;;5006777;28;20233;-56
2022/09/04 11:57:39;;;;;;;0.70;0.70;;;;;;;;;;4988144;28;20264;-60
2022/09/04 12:00:06;;;;;;;0.80;0.80;;;;;;;;;;5003588;28;20806;-61
2022/09/04 12:02:51;;;;;;;0.63;0.63;;;;;;;;;;5004107;28;21590;-60
2022/09/04 12:05:23;;;;;;;0.70;0.70;;;;;;;;;;5007747;28;20575;-59
2022/09/04 12:08:09;;;;;;;0.70;0.70;;;;;;;;;;5025349;28;20230;-61
2022/09/04 12:10:51;;;;;;;0.70;0.70;;;;;;;;;;5009455;28;20315;-61
2022/09/04 12:13:38;;;;;;;0.70;0.70;;;;;;;;;;5010113;28;20287;-61
2022/09/04 12:16:15;;;;;;;0.70;0.70;;;;;;;;;;5006665;28;20264;-61
2022/09/04 12:18:44;;;;;;;0.70;0.70;;;;;;;;;;5009008;28;20227;-60
2022/09/04 12:21:11;;;;;;;0.70;0.70;;;;;;;;;;5024948;28;20232;-61
2022/09/04 12:23:49;;;;;;;0.70;0.70;;;;;;;;;;5027078;28;20310;-59
2022/09/04 12:26:34;;;;;;;0.73;0.73;;;;;;;;;;5006512;28;20219;-61
2022/09/04 12:29:02;;;;;;;0.70;0.70;;;;;;;;;;5013387;28;20231;-59
2022/09/04 12:31:50;;;;;;;0.90;0.90;;;;;;;;;;5014632;28;20308;-60
2022/09/04 12:34:31;;;;;;;0.80;0.80;;;;;;;;;;5007182;28;20739;-60
2022/09/04 12:37:10;;;;;;;0.80;0.80;;;;;;;;;;5024088;28;20647;-60
2022/09/04 12:39:36;;;;;;;0.90;0.90;;;;;;;;;;5025690;28;20255;-60
2022/09/04 12:42:13;;;;;;;0.90;0.90;;;;;;;;;;5013731;28;20266;-60
2022/09/04 12:44:56;;;;;;;0.80;0.80;;;;;;;;;;5013133;28;20237;-59
2022/09/04 12:47:31;;;;;;;0.80;0.80;;;;;;;;;;5023108;28;20723;-59
2022/09/04 12:50:17;;;;;;;0.82;0.82;;;;;;;;;;5015554;28;20239;-59
2022/09/04 12:52:50;;;;;;;0.80;0.80;;;;;;;;;;4993390;28;21246;-60
2022/09/04 12:55:29;;;;;;;0.80;0.80;;;;;;;;;;5000640;28;20237;-59
2022/09/04 12:57:54;;;;;;;0.75;0.75;;;;;;;;;;5021376;28;20234;-60
2022/09/04 13:00:22;;;;;;;0.90;0.90;;;;;;;;;;5003250;28;20232;-59
2022/09/04 13:03:00;;;;;;;0.90;0.90;;;;;;;;;;5010946;28;20212;-58
2022/09/04 13:05:42;;;;;;;0.80;0.80;;;;;;;;;;5022628;28;20224;-59
2022/09/04 13:08:17;;;;;;;0.90;0.90;;;;;;;;;;5027927;28;20221;-59
2022/09/04 13:10:43;;;;;;;0.90;0.90;;;;;;;;;;5014034;28;20354;-59
2022/09/04 13:13:19;;;;;;;0.90;0.90;;;;;;;;;;5024396;28;20212;-61
2022/09/04 13:15:45;;;;;;;0.80;0.80;;;;;;;;;;5016183;28;20247;-60
2022/09/04 13:18:20;;;;;;;0.90;0.90;;;;;;;;;;5032067;28;20295;-59
2022/09/04 13:20:58;;;;;;;0.90;0.90;;;;;;;;;;5022944;28;20279;-61
2022/09/04 13:23:43;;;;;;;0.80;0.80;;;;;;;;;;4994494;28;20401;-60
2022/09/04 13:26:12;;;;;;;0.80;0.80;;;;;;;;;;5029524;28;20219;-61
2022/09/04 13:29:01;;;;;;;0.60;0.60;;;;;;;;;;5014506;28;20223;-60
2022/09/04 13:31:42;;;;;;;0.70;0.70;;;;;;;;;;5012908;28;20244;-58
2022/09/04 13:34:13;;;;;;;0.73;0.73;;;;;;;;;;5016246;28;20322;-60
2022/09/04 13:36:54;;;;;;;0.70;0.70;;;;;;;;;;5006361;28;20246;-58
2022/09/04 13:39:29;;;;;;;0.73;0.73;;;;;;;;;;4997280;28;20228;-59
2022/09/04 13:42:01;;;;;;;0.70;0.70;;;;;;;;;;5013680;28;20228;-58
2022/09/04 13:44:39;;;;;;;0.70;0.70;;;;;;;;;;4988630;28;20230;-59
2022/09/04 13:47:12;;;;;;;0.70;0.70;;;;;;;;;;4991622;28;20252;-59
2022/09/04 13:49:46;;;;;;;0.68;0.68;;;;;;;;;;5012468;28;20258;-59
2022/09/04 13:52:14;;;;;;;0.70;0.70;;;;;;;;;;5008439;28;20258;-59
2022/09/04 13:54:45;;;;;;;0.70;0.70;;;;;;;;;;5012707;28;20624;-59
2022/09/04 13:57:24;;;;;;;0.70;0.70;;;;;;;;;;5013942;28;20243;-59
2022/09/04 13:59:53;;;;;;;0.60;0.60;;;;;;;;;;5004302;28;20228;-60
2022/09/04 14:02:24;;;;;;;0.68;0.68;;;;;;;;;;5000861;28;20233;-59
2022/09/04 14:05:01;;;;;;;0.70;0.70;;;;;;;;;;5003915;28;20639;-59
2022/09/04 14:07:28;;;;;;;0.70;0.70;;;;;;;;;;4997025;28;20330;-60
2022/09/04 14:09:56;;;;;;;0.80;0.80;;;;;;;;;;5025448;28;20216;-60
2022/09/04 14:13:00;;;;;;;0.70;0.70;;;;;;;;;;5006297;28;20799;-59
2022/09/04 14:15:41;;;;;;;0.60;0.60;;;;;;;;;;4936465;28;20290;-59
2022/09/04 14:18:19;;;;;;;0.70;0.70;;;;;;;;;;4950873;28;20654;-59
2022/09/04 14:20:58;;;;;;;0.73;0.73;;;;;;;;;;4991695;28;20228;-58
2022/09/04 14:23:28;;;;;;;0.70;0.70;;;;;;;;;;5013798;28;20228;-59
2022/09/04 14:26:03;;;;;;;0.70;0.70;;;;;;;;;;4988751;28;20232;-60
2022/09/04 14:28:31;;;;;;;0.70;0.70;;;;;;;;;;5014371;28;20230;-58
2022/09/04 14:31:00;;;;;;;0.70;0.70;;;;;;;;;;4987600;28;20282;-58
2022/09/04 14:33:35;;;;;;;0.70;0.70;;;;;;;;;;4998669;28;20222;-58
2022/09/04 14:36:01;;;;;;;0.70;0.70;;;;;;;;;;4963002;28;22600;-60
2022/09/04 14:38:28;;;;;;;0.70;0.70;;;;;;;;;;5010125;28;20252;-59
2022/09/04 14:40:57;;;;;;;0.70;0.70;;;;;;;;;;4987273;28;20902;-59
2022/09/04 14:43:30;;;;;;;0.80;0.80;;;;;;;;;;4972492;28;20561;-59
2022/09/04 14:46:07;;;;;;;0.70;0.70;;;;;;;;;;5009554;28;20255;-60
2022/09/04 14:48:39;;;;;;;0.70;0.70;;;;;;;;;;5002314;28;20227;-59
2022/09/04 14:51:15;;;;;;;0.70;0.70;;;;;;;;;;4994944;28;20257;-58
2022/09/04 14:53:45;;;;;;;0.70;0.70;;;;;;;;;;5012481;28;20354;-57
2022/09/04 14:56:11;;;;;;;0.70;0.70;;;;;;;;;;5009559;28;20212;-58
2022/09/04 14:58:45;;;;;;;0.70;0.70;;;;;;;;;;5011230;28;20597;-56
2022/09/04 15:01:22;;;;;;;0.70;0.70;;;;;;;;;;5022036;28;20835;-57
2022/09/04 15:03:54;;;;;;;0.70;0.70;;;;;;;;;;5016317;28;20215;-56
2022/09/04 15:06:29;;;;;;;0.70;0.70;;;;;;;;;;5019608;28;20225;-58
2022/09/04 15:08:55;;;;;;;0.70;0.70;;;;;;;;;;5029465;28;20229;-58
2022/09/04 15:11:29;;;;;;;0.70;0.70;;;;;;;;;;5023484;28;20219;-58
2022/09/04 15:14:25;;;;;;;0.70;0.70;;;;;;;;;;5002543;28;21149;-57
2022/09/04 15:16:56;;;;;;;0.70;0.70;;;;;;;;;;5014869;28;20732;-57
2022/09/04 15:19:40;;;;;;;0.70;0.70;;;;;;;;;;5011947;28;20319;-57
2022/09/04 15:22:25;;;;;;;0.60;0.60;;;;;;;;;;5020820;28;20609;-57
2022/09/04 15:24:59;;;;;;;0.73;0.73;;;;;;;;;;5021924;28;20280;-56
2022/09/04 15:27:34;;;;;;;0.70;0.70;;;;;;;;;;5000845;28;20228;-56
2022/09/04 15:30:27;;;;;;;0.70;0.70;;;;;;;;;;5023396;28;20219;-57
2022/09/04 15:33:11;;;;;;;0.70;0.70;;;;;;;;;;5022113;28;20795;-56
2022/09/04 15:35:40;;;;;;;0.70;0.70;;;;;;;;;;5029642;28;21472;-57
2022/09/04 15:38:19;;;;;;;0.70;0.70;;;;;;;;;;5021875;28;20712;-58